createdAt,value
2022-08-07T00:00:52.506Z,17.00
2022-08-07T00:05:54.696Z,16.90
2022-08-07T00:10:57.471Z,16.90
2022-08-07T00:16:00.322Z,16.80
2022-08-07T00:21:08.130Z,16.80
2022-08-07T00:26:49.399Z,16.70
2022-08-07T00:31:49.346Z,16.60
2022-08-07T00:36:53.373Z,16.60
2022-08-07T00:42:02.158Z,16.50
2022-08-07T00:47:15.785Z,16.40
2022-08-07T00:52:33.337Z,16.30
2022-08-07T00:57:38.380Z,16.20
2022-08-07T01:02:57.480Z,16.20
2022-08-07T01:07:59.835Z,16.10
2022-08-07T01:13:01.732Z,16.10
2022-08-07T01:18:05.054Z,16.00
2022-08-07T01:23:13.083Z,15.80
2022-08-07T01:28:15.221Z,15.60
2022-08-07T01:33:17.308Z,15.50
2022-08-07T01:38:25.385Z,15.40
2022-08-07T01:43:38.300Z,15.30
2022-08-07T01:48:42.183Z,15.30
2022-08-07T01:54:12.172Z,15.20
2022-08-07T01:59:22.514Z,15.20
2022-08-07T02:04:37.304Z,15.10
2022-08-07T02:09:52.952Z,15.10
2022-08-07T02:15:01.357Z,15.00
2022-08-07T02:20:17.552Z,14.90
2022-08-07T02:26:10.081Z,14.80
2022-08-07T02:30:50.517Z,14.80
2022-08-07T02:36:29.684Z,14.70
2022-08-07T02:41:21.783Z,14.60
2022-08-07T02:46:26.294Z,14.50
2022-08-07T02:51:49.939Z,14.40
2022-08-07T02:56:56.229Z,14.30
2022-08-07T03:02:01.947Z,14.30
2022-08-07T03:07:10.395Z,14.30
2022-08-07T03:12:21.942Z,14.30
2022-08-07T03:17:24.200Z,14.20
2022-08-07T03:22:29.553Z,14.20
2022-08-07T03:27:59.412Z,14.20
2022-08-07T03:32:58.841Z,14.10
2022-08-07T03:38:04.735Z,14.10
2022-08-07T03:43:13.783Z,14.10
2022-08-07T03:48:16.663Z,14.00
2022-08-07T03:53:18.330Z,14.00
2022-08-07T03:59:08.202Z,13.90
2022-08-07T04:03:55.493Z,13.90
2022-08-07T04:08:57.803Z,13.90
2022-08-07T04:14:33.104Z,13.90
2022-08-07T04:19:25.327Z,13.90
2022-08-07T04:24:48.774Z,13.90
2022-08-07T04:30:01.824Z,13.90
2022-08-07T04:35:06.310Z,13.80
2022-08-07T04:40:09.382Z,13.80
2022-08-07T04:45:14.267Z,13.70
2022-08-07T04:50:30.758Z,13.80
2022-08-07T04:58:12.384Z,13.80
2022-08-07T05:01:18.258Z,13.90
2022-08-07T05:06:43.406Z,13.30
2022-08-07T05:11:58.349Z,14.10
2022-08-07T05:17:05.750Z,14.20
2022-08-07T05:22:26.759Z,14.30
2022-08-07T05:28:02.642Z,14.40
2022-08-07T05:32:54.504Z,14.50
2022-08-07T05:38:08.770Z,14.70
2022-08-07T05:43:11.934Z,14.80
2022-08-07T05:48:15.279Z,15.00
2022-08-07T05:54:13.219Z,15.20
2022-08-07T05:58:41.383Z,15.30
2022-08-07T06:04:01.085Z,15.40
2022-08-07T06:09:04.844Z,15.60
2022-08-07T06:14:12.400Z,15.80
2022-08-07T06:19:57.531Z,16.00
2022-08-07T06:24:55.655Z,16.20
2022-08-07T06:30:00.849Z,16.40
2022-08-07T06:35:03.304Z,16.60
2022-08-07T06:40:21.181Z,16.80
2022-08-07T06:45:24.748Z,17.00
2022-08-07T06:50:27.619Z,17.20
2022-08-07T06:56:00.065Z,17.40
2022-08-07T07:00:57.866Z,17.50
2022-08-07T07:06:04.026Z,17.80
2022-08-07T07:11:13.235Z,17.90
2022-08-07T07:16:20.238Z,18.10
2022-08-07T07:22:04.298Z,18.30
2022-08-07T07:26:53.890Z,18.40
2022-08-07T07:31:57.712Z,18.60
2022-08-07T07:37:14.691Z,18.80
2022-08-07T07:42:33.236Z,19.00
2022-08-07T07:47:52.043Z,19.10
2022-08-07T07:52:56.452Z,19.20
2022-08-07T07:57:58.836Z,19.40
2022-08-07T08:03:09.310Z,19.50
2022-08-07T08:08:34.983Z,19.70
2022-08-07T08:13:53.040Z,19.90
2022-08-07T08:18:58.143Z,20.20
2022-08-07T08:24:44.751Z,20.40
2022-08-07T08:29:55.653Z,20.60
2022-08-07T08:34:59.727Z,20.80
2022-08-07T08:40:02.756Z,21.00
2022-08-07T08:45:41.829Z,21.00
2022-08-07T08:51:49.796Z,21.30
2022-08-07T08:56:50.417Z,21.50
2022-08-07T09:02:35.254Z,21.90
2022-08-07T09:07:59.422Z,22.00
2022-08-07T09:13:36.770Z,22.20
2022-08-07T09:19:07.330Z,22.30
2022-08-07T09:24:58.511Z,22.50
2022-08-07T09:30:08.966Z,22.60
2022-08-07T09:36:04.387Z,22.80
2022-08-07T09:41:09.293Z,22.90
2022-08-07T09:47:50.135Z,23.20
2022-08-07T09:52:34.208Z,23.30
2022-08-07T09:58:09.302Z,23.50
2022-08-07T10:04:05.879Z,23.80
2022-08-07T10:09:42.679Z,24.00
2022-08-07T10:15:15.422Z,24.10
2022-08-07T10:20:50.131Z,24.40
2022-08-07T10:26:24.649Z,24.60
2022-08-07T10:31:38.962Z,24.50
2022-08-07T10:37:12.569Z,24.70
2022-08-07T10:42:50.058Z,25.10
2022-08-07T10:48:14.321Z,25.60
2022-08-07T10:53:43.902Z,25.50
2022-08-07T10:59:01.889Z,25.80
2022-08-07T11:04:32.062Z,26.30
2022-08-07T11:10:08.531Z,26.40
2022-08-07T11:15:26.340Z,26.80
2022-08-07T11:20:56.465Z,27.00
2022-08-07T11:26:17.469Z,27.40
2022-08-07T11:31:38.893Z,27.70
2022-08-07T11:36:56.630Z,27.70
2022-08-07T11:42:30.338Z,28.00
2022-08-07T11:47:58.855Z,28.10
2022-08-07T11:53:22.504Z,27.30
2022-08-07T11:58:49.716Z,27.70
2022-08-07T12:04:24.324Z,27.50
2022-08-07T12:09:46.214Z,27.70
2022-08-07T12:15:08.079Z,28.30
2022-08-07T12:20:32.278Z,28.60
2022-08-07T12:26:22.754Z,28.20
2022-08-07T12:31:53.339Z,28.70
2022-08-07T12:36:54.796Z,28.80
2022-08-07T12:41:58.169Z,28.60
2022-08-07T12:47:26.981Z,29.10
2022-08-07T12:52:34.967Z,29.20
2022-08-07T12:58:00.314Z,29.20
2022-08-07T13:03:27.033Z,29.30
2022-08-07T13:08:59.274Z,29.40
2022-08-07T13:14:24.260Z,29.60
2022-08-07T13:19:50.740Z,29.90
2022-08-07T13:25:06.043Z,30.10
2022-08-07T13:30:19.523Z,29.90
2022-08-07T13:36:00.436Z,30.20
2022-08-07T13:41:42.346Z,30.20
2022-08-07T13:46:54.285Z,30.20
2022-08-07T13:52:16.461Z,30.40
2022-08-07T13:57:24.189Z,30.20
2022-08-07T14:02:29.755Z,30.70
2022-08-07T14:08:00.946Z,30.90
2022-08-07T14:13:04.855Z,30.80
2022-08-07T14:18:28.742Z,30.80
2022-08-07T14:24:01.131Z,31.00
2022-08-07T14:29:04.314Z,30.80
2022-08-07T14:34:10.117Z,31.40
2022-08-07T14:40:16.078Z,31.50
2022-08-07T14:44:37.325Z,32.20
2022-08-07T14:49:58.056Z,32.30
2022-08-07T14:55:02.609Z,31.60
2022-08-07T15:00:07.994Z,31.90
2022-08-07T15:05:20.618Z,32.40
2022-08-07T15:10:29.903Z,33.00
2022-08-07T15:21:58.642Z,33.30
2022-08-07T15:27:10.400Z,33.10
2022-08-07T15:32:12.796Z,33.00
2022-08-07T15:37:16.563Z,33.30
2022-08-07T15:42:52.716Z,33.30
2022-08-07T15:48:01.950Z,33.10
2022-08-07T15:53:11.151Z,32.60
2022-08-07T15:58:21.192Z,32.40
2022-08-07T16:03:47.080Z,31.80
2022-08-07T16:08:48.175Z,31.80
2022-08-07T16:14:11.398Z,32.20
2022-08-07T16:19:59.592Z,32.30
2022-08-07T16:25:54.210Z,32.40
2022-08-07T16:31:50.130Z,32.20
2022-08-07T16:38:04.398Z,31.80
2022-08-07T16:42:55.140Z,32.00
2022-08-07T16:48:09.395Z,32.00
2022-08-07T16:54:06.180Z,32.10
2022-08-07T16:59:24.425Z,31.70
2022-08-07T17:06:28.176Z,31.50
2022-08-07T17:10:55.605Z,31.00
2022-08-07T17:16:16.554Z,30.90
2022-08-07T17:21:23.680Z,30.40
2022-08-07T17:26:49.830Z,30.20
2022-08-07T17:32:06.411Z,29.80
2022-08-07T17:38:05.552Z,29.70
2022-08-07T17:42:59.629Z,29.60
2022-08-07T17:48:17.103Z,29.20
2022-08-07T17:54:01.553Z,29.20
2022-08-07T17:59:24.236Z,29.20
2022-08-07T18:04:45.594Z,28.70
2022-08-07T18:10:05.881Z,28.20
2022-08-07T18:15:22.579Z,27.70
2022-08-07T18:21:08.187Z,27.20
2022-08-07T18:26:14.727Z,26.70
2022-08-07T18:31:23.719Z,26.40
2022-08-07T18:36:33.515Z,26.10
2022-08-07T18:41:53.615Z,25.80
2022-08-07T18:47:06.856Z,25.50
2022-08-07T18:52:52.626Z,25.20
2022-08-07T18:58:15.212Z,25.00
2022-08-07T19:03:16.938Z,24.70
2022-08-07T19:08:46.243Z,24.40
2022-08-07T19:14:20.096Z,24.20
2022-08-07T19:19:53.444Z,23.90
2022-08-07T19:24:55.566Z,23.70
2022-08-07T19:30:57.375Z,23.50
2022-08-07T19:35:26.620Z,23.30
2022-08-07T19:40:36.450Z,23.10
2022-08-07T19:46:07.270Z,22.90
2022-08-07T19:51:20.480Z,22.80
2022-08-07T19:57:51.765Z,22.60
2022-08-07T20:01:57.408Z,22.50
2022-08-07T20:07:00.708Z,22.30
2022-08-07T20:12:31.510Z,22.20
2022-08-07T20:17:26.797Z,22.10
2022-08-07T20:22:34.113Z,22.00
2022-08-07T20:27:46.077Z,21.90
2022-08-07T20:32:54.860Z,21.80
2022-08-07T20:38:00.869Z,21.70
2022-08-07T20:43:14.742Z,21.60
2022-08-07T20:48:29.598Z,21.50
2022-08-07T20:54:04.202Z,21.40
2022-08-07T20:59:01.292Z,21.30
2022-08-07T21:04:21.705Z,21.20
2022-08-07T21:09:52.171Z,21.00
2022-08-07T21:14:56.908Z,20.90
2022-08-07T21:20:04.578Z,20.80
2022-08-07T21:25:13.746Z,20.70
2022-08-07T21:30:18.781Z,20.50
2022-08-07T21:36:03.815Z,20.40
2022-08-07T21:41:11.018Z,20.40
2022-08-07T21:46:25.295Z,20.30
2022-08-07T21:51:51.730Z,20.20
2022-08-07T21:57:40.014Z,20.20
2022-08-07T22:03:10.171Z,20.10
2022-08-07T22:08:14.225Z,20.10
2022-08-07T22:13:24.407Z,20.00
2022-08-07T22:19:04.912Z,20.00
2022-08-07T22:24:19.614Z,19.90
2022-08-07T22:29:54.366Z,19.90
2022-08-07T22:35:00.376Z,19.80
2022-08-07T22:40:41.657Z,19.80
2022-08-07T22:46:43.165Z,19.80
2022-08-07T22:52:00.410Z,19.80
2022-08-07T22:57:08.061Z,19.80
2022-08-07T23:02:25.638Z,19.80
2022-08-07T23:08:04.875Z,19.70
2022-08-07T23:13:49.131Z,19.60
2022-08-07T23:20:07.297Z,19.50
2022-08-07T23:25:36.580Z,19.40
2022-08-07T23:31:06.376Z,19.30
2022-08-07T23:36:39.054Z,19.20
2022-08-07T23:42:04.527Z,19.10
2022-08-07T23:47:48.074Z,19.00
2022-08-07T23:53:06.259Z,18.80
2022-08-07T23:58:18.783Z,18.70
